KCKM/CKM METAR and TAF weather

Enter ICAO airport designator
Station Type Date Time Source
KCKM METAR 2018/07/21 22:55 UTC NOAA

KCKM 212255Z AUTO 25006KT 10SM CLR 32/27 A2985 RMK A01


Station Type Date Time Source
KCKM Decoded METAR 2018/07/21 22:55 UTC NOAA

Station name not available
Jul 21, 2018 - 06:55 PM EDT / 2018.07.21 2255 UTC
Wind: from the WSW (250 degrees) at 7 MPH (6 KT):0
Visibility: 10 mile(s):0
Sky conditions: clear
Temperature: 89 F (32 C)
Heat index: 105.6 F (40.9 C):1
Dew Point: 80 F (27 C)
Relative Humidity: 74%
Pressure (altimeter): 29.85 in. Hg (1010 hPa)
ob: KCKM 212255Z AUTO 25006KT 10SM CLR 32/27 A2985 RMK A01
cycle: 23

Station Type Date Time Source
KCKM TAF UTC NOAA

Error!


Example: see airport list